sensor_id;sensor_type;location;lat;lon;timestamp;pressure;altitude;pressure_sealevel;temperature;humidity
26320;BME280;14024;52.226;5.200;2024-03-23T00:55:36;101078.56;;;7.72;100.00
26320;BME280;14024;52.226;5.200;2024-03-23T00:58:02;101070.84;;;7.66;100.00
26320;BME280;14024;52.226;5.200;2024-03-23T01:00:27;101069.19;;;7.63;100.00
26320;BME280;14024;52.226;5.200;2024-03-23T01:02:52;101064.03;;;7.60;100.00
26320;BME280;14024;52.226;5.200;2024-03-23T01:05:18;101057.78;;;7.63;100.00
26320;BME280;14024;52.226;5.200;2024-03-23T01:07:43;101055.25;;;7.60;100.00
26320;BME280;14024;52.226;5.200;2024-03-23T01:10:09;101052.81;;;7.54;100.00
26320;BME280;14024;52.226;5.200;2024-03-23T01:12:34;101057.22;;;7.53;100.00
26320;BME280;14024;52.226;5.200;2024-03-23T01:14:59;101048.41;;;7.54;100.00
26320;BME280;14024;52.226;5.200;2024-03-23T01:17:25;101041.56;;;7.49;100.00
26320;BME280;14024;52.226;5.200;2024-03-23T01:19:54;101040.13;;;7.40;100.00
26320;BME280;14024;52.226;5.200;2024-03-23T01:22:19;101038.38;;;7.39;100.00
26320;BME280;14024;52.226;5.200;2024-03-23T01:24:44;101029.59;;;7.39;100.00
26320;BME280;14024;52.226;5.200;2024-03-23T01:27:10;101030.75;;;7.32;100.00
26320;BME280;14024;52.226;5.200;2024-03-23T01:29:35;101032.47;;;7.33;100.00
26320;BME280;14024;52.226;5.200;2024-03-23T01:32:00;101029.88;;;7.31;100.00
26320;BME280;14024;52.226;5.200;2024-03-23T01:34:26;101033.53;;;7.27;100.00
26320;BME280;14024;52.226;5.200;2024-03-23T01:36:53;101018.59;;;7.28;100.00
26320;BME280;14024;52.226;5.200;2024-03-23T01:39:18;101024.81;;;7.25;100.00
26320;BME280;14024;52.226;5.200;2024-03-23T01:41:43;101010.78;;;7.25;100.00
26320;BME280;14024;52.226;5.200;2024-03-23T01:44:09;101009.09;;;7.22;100.00
26320;BME280;14024;52.226;5.200;2024-03-23T01:46:38;101002.22;;;7.18;100.00
26320;BME280;14024;52.226;5.200;2024-03-23T01:49:07;101012.00;;;7.14;100.00
26320;BME280;14024;52.226;5.200;2024-03-23T01:51:33;101008.56;;;7.12;100.00
26320;BME280;14024;52.226;5.200;2024-03-23T01:54:01;101017.38;;;7.11;100.00
26320;BME280;14024;52.226;5.200;2024-03-23T01:56:29;101013.13;;;7.07;100.00
26320;BME280;14024;52.226;5.200;2024-03-23T01:58:55;101009.63;;;7.07;100.00
26320;BME280;14024;52.226;5.200;2024-03-23T02:01:21;101011.56;;;7.02;100.00
26320;BME280;14024;52.226;5.200;2024-03-23T02:03:46;101008.00;;;7.03;100.00
26320;BME280;14024;52.226;5.200;2024-03-23T02:06:12;101009.88;;;6.99;100.00
26320;BME280;14024;52.226;5.200;2024-03-23T02:08:38;101010.75;;;7.00;100.00
26320;BME280;14024;52.226;5.200;2024-03-23T02:11:04;101005.44;;;7.01;100.00
26320;BME280;14024;52.226;5.200;2024-03-23T02:13:29;101009.00;;;6.99;100.00
26320;BME280;14024;52.226;5.200;2024-03-23T02:15:54;101008.31;;;6.94;100.00
26320;BME280;14024;52.226;5.200;2024-03-23T02:18:20;100999.72;;;6.89;100.00
26320;BME280;14024;52.226;5.200;2024-03-23T02:20:45;101001.41;;;6.90;100.00
26320;BME280;14024;52.226;5.200;2024-03-23T02:23:15;100995.28;;;6.89;100.00
26320;BME280;14024;52.226;5.200;2024-03-23T02:25:40;100993.47;;;6.91;100.00
26320;BME280;14024;52.226;5.200;2024-03-23T02:28:06;100983.19;;;6.84;100.00
26320;BME280;14024;52.226;5.200;2024-03-23T02:30:31;100991.19;;;6.81;100.00
26320;BME280;14024;52.226;5.200;2024-03-23T02:32:56;100989.38;;;6.83;100.00
26320;BME280;14024;52.226;5.200;2024-03-23T02:35:22;100983.28;;;6.81;100.00
26320;BME280;14024;52.226;5.200;2024-03-23T02:37:47;100983.34;;;6.79;100.00
26320;BME280;14024;52.226;5.200;2024-03-23T02:40:16;100978.22;;;6.75;100.00
26320;BME280;14024;52.226;5.200;2024-03-23T02:42:42;100980.16;;;6.69;100.00
26320;BME280;14024;52.226;5.200;2024-03-23T02:45:07;100980.06;;;6.71;100.00
26320;BME280;14024;52.226;5.200;2024-03-23T02:47:33;100974.78;;;6.72;100.00
26320;BME280;14024;52.226;5.200;2024-03-23T02:49:58;100980.94;;;6.71;100.00
26320;BME280;14024;52.226;5.200;2024-03-23T02:52:24;100972.97;;;6.75;100.00
26320;BME280;14024;52.226;5.200;2024-03-23T02:54:49;100973.13;;;6.70;100.00
26320;BME280;14024;52.226;5.200;2024-03-23T02:57:14;100977.59;;;6.66;100.00
26320;BME280;14024;52.226;5.200;2024-03-23T02:59:40;100978.28;;;6.73;100.00
26320;BME280;14024;52.226;5.200;2024-03-23T03:02:06;100970.53;;;6.68;100.00
26320;BME280;14024;52.226;5.200;2024-03-23T03:04:31;100975.06;;;6.63;100.00
26320;BME280;14024;52.226;5.200;2024-03-23T03:06:57;100974.28;;;6.61;100.00
26320;BME280;14024;52.226;5.200;2024-03-23T03:09:22;100969.00;;;6.61;100.00
26320;BME280;14024;52.226;5.200;2024-03-23T03:11:48;100971.78;;;6.57;100.00
26320;BME280;14024;52.226;5.200;2024-03-23T03:14:13;100969.84;;;6.62;100.00
26320;BME280;14024;52.226;5.200;2024-03-23T03:16:39;100970.81;;;6.59;100.00
26320;BME280;14024;52.226;5.200;2024-03-23T03:19:05;100967.47;;;6.54;100.00
26320;BME280;14024;52.226;5.200;2024-03-23T03:21:31;100968.47;;;6.50;100.00
26320;BME280;14024;52.226;5.200;2024-03-23T03:23:57;100965.09;;;6.47;100.00
26320;BME280;14024;52.226;5.200;2024-03-23T03:26:23;100967.88;;;6.42;100.00
26320;BME280;14024;52.226;5.200;2024-03-23T03:28:48;100967.97;;;6.39;100.00
26320;BME280;14024;52.226;5.200;2024-03-23T03:31:15;100961.88;;;6.37;100.00
26320;BME280;14024;52.226;5.200;2024-03-23T03:33:40;100957.44;;;6.39;100.00
26320;BME280;14024;52.226;5.200;2024-03-23T03:36:06;100967.19;;;6.36;100.00
26320;BME280;14024;52.226;5.200;2024-03-23T03:38:31;100956.50;;;6.40;100.00
26320;BME280;14024;52.226;5.200;2024-03-23T03:40:56;100959.25;;;6.37;100.00
26320;BME280;14024;52.226;5.200;2024-03-23T03:43:24;100949.78;;;6.32;100.00
26320;BME280;14024;52.226;5.200;2024-03-23T03:45:53;100952.47;;;6.30;100.00
26320;BME280;14024;52.226;5.200;2024-03-23T03:48:18;100943.63;;;6.31;100.00
26320;BME280;14024;52.226;5.200;2024-03-23T03:50:44;100949.00;;;6.28;100.00
26320;BME280;14024;52.226;5.200;2024-03-23T03:53:09;100942.22;;;6.21;100.00
26320;BME280;14024;52.226;5.200;2024-03-23T03:55:34;100941.38;;;6.20;100.00
26320;BME280;14024;52.226;5.200;2024-03-23T03:58:01;100940.50;;;6.20;100.00
26320;BME280;14024;52.226;5.200;2024-03-23T04:00:26;100939.63;;;6.19;100.00
26320;BME280;14024;52.226;5.200;2024-03-23T04:02:52;100937.91;;;6.18;100.00
26320;BME280;14024;52.226;5.200;2024-03-23T04:05:17;100942.13;;;6.24;100.00
26320;BME280;14024;52.226;5.200;2024-03-23T04:07:42;100945.38;;;6.32;100.00
26320;BME280;14024;52.226;5.200;2024-03-23T04:10:08;100940.28;;;6.26;100.00
26320;BME280;14024;52.226;5.200;2024-03-23T04:12:34;100940.56;;;6.17;100.00
26320;BME280;14024;52.226;5.200;2024-03-23T04:15:00;100934.38;;;6.19;100.00
26320;BME280;14024;52.226;5.200;2024-03-23T04:17:29;100932.00;;;6.12;100.00
26320;BME280;14024;52.226;5.200;2024-03-23T04:19:57;100927.00;;;6.03;100.00
26320;BME280;14024;52.226;5.200;2024-03-23T04:22:22;100928.91;;;5.98;100.00
26320;BME280;14024;52.226;5.200;2024-03-23T04:24:49;100924.59;;;5.95;100.00
26320;BME280;14024;52.226;5.200;2024-03-23T04:27:14;100927.28;;;5.94;100.00
26320;BME280;14024;52.226;5.200;2024-03-23T04:29:40;100929.97;;;5.92;100.00
26320;BME280;14024;52.226;5.200;2024-03-23T04:32:05;100923.94;;;5.89;100.00
26320;BME280;14024;52.226;5.200;2024-03-23T04:34:31;100932.84;;;5.83;100.00
26320;BME280;14024;52.226;5.200;2024-03-23T04:36:58;100930.34;;;5.78;100.00
26320;BME280;14024;52.226;5.200;2024-03-23T04:39:23;100936.59;;;5.74;100.00
26320;BME280;14024;52.226;5.200;2024-03-23T04:41:48;100934.00;;;5.73;100.00
26320;BME280;14024;52.226;5.200;2024-03-23T04:44:14;100929.59;;;5.73;100.00
26320;BME280;14024;52.226;5.200;2024-03-23T04:46:39;100928.97;;;5.65;100.00
26320;BME280;14024;52.226;5.200;2024-03-23T04:49:04;100924.63;;;5.64;100.00
26320;BME280;14024;52.226;5.200;2024-03-23T04:51:35;100933.59;;;5.57;100.00
26320;BME280;14024;52.226;5.200;2024-03-23T04:54:02;100926.63;;;5.56;100.00
26320;BME280;14024;52.226;5.200;2024-03-23T04:56:27;100922.47;;;5.49;100.00
26320;BME280;14024;52.226;5.200;2024-03-23T04:58:53;100921.53;;;5.50;100.00
26320;BME280;14024;52.226;5.200;2024-03-23T05:01:18;100922.47;;;5.49;100.00
26320;BME280;14024;52.226;5.200;2024-03-23T05:03:44;100918.97;;;5.49;100.00
26320;BME280;14024;52.226;5.200;2024-03-23T05:06:09;100918.16;;;5.45;100.00
26320;BME280;14024;52.226;5.200;2024-03-23T05:08:34;100913.00;;;5.42;100.00
26320;BME280;14024;52.226;5.200;2024-03-23T05:10:59;100906.97;;;5.38;100.00
26320;BME280;14024;52.226;5.200;2024-03-23T05:13:25;100912.28;;;5.37;100.00
26320;BME280;14024;52.226;5.200;2024-03-23T05:15:54;100916.78;;;5.32;100.00
26320;BME280;14024;52.226;5.200;2024-03-23T05:18:20;100913.34;;;5.30;100.00
26320;BME280;14024;52.226;5.200;2024-03-23T05:20:45;100914.28;;;5.27;100.00
26320;BME280;14024;52.226;5.200;2024-03-23T05:23:10;100911.72;;;5.26;100.00
26320;BME280;14024;52.226;5.200;2024-03-23T05:25:36;100920.41;;;5.28;100.00
26320;BME280;14024;52.226;5.200;2024-03-23T05:28:01;100921.25;;;5.30;100.00
26320;BME280;14024;52.226;5.200;2024-03-23T05:30:27;100922.03;;;5.32;100.00
26320;BME280;14024;52.226;5.200;2024-03-23T05:32:53;100923.78;;;5.33;100.00
26320;BME280;14024;52.226;5.200;2024-03-23T05:35:18;100930.66;;;5.37;100.00
26320;BME280;14024;52.226;5.200;2024-03-23T05:37:43;100909.56;;;5.40;100.00
26320;BME280;14024;52.226;5.200;2024-03-23T05:40:10;100914.88;;;5.38;100.00
26320;BME280;14024;52.226;5.200;2024-03-23T05:42:35;100913.91;;;5.41;100.00
26320;BME280;14024;52.226;5.200;2024-03-23T05:45:01;100912.19;;;5.40;100.00
26320;BME280;14024;52.226;5.200;2024-03-23T05:47:26;100907.84;;;5.39;100.00
26320;BME280;14024;52.226;5.200;2024-03-23T05:49:51;100909.56;;;5.40;100.00
26320;BME280;14024;52.226;5.200;2024-03-23T05:52:17;100912.28;;;5.37;100.00
26320;BME280;14024;52.226;5.200;2024-03-23T05:54:42;100904.56;;;5.31;100.00
26320;BME280;14024;52.226;5.200;2024-03-23T05:57:08;100899.47;;;5.25;100.00
26320;BME280;14024;52.226;5.200;2024-03-23T05:59:34;100908.00;;;5.33;100.00
26320;BME280;14024;52.226;5.200;2024-03-23T06:01:59;100913.16;;;5.36;100.00
26320;BME280;14024;52.226;5.200;2024-03-23T06:04:24;100906.28;;;5.32;100.00
26320;BME280;14024;52.226;5.200;2024-03-23T06:06:51;100908.84;;;5.35;100.00
26320;BME280;14024;52.226;5.200;2024-03-23T06:09:19;100906.13;;;5.38;100.00
26320;BME280;14024;52.226;5.200;2024-03-23T06:11:45;100911.97;;;5.48;100.00
26320;BME280;14024;52.226;5.200;2024-03-23T06:14:11;100914.47;;;5.52;100.00
26320;BME280;14024;52.226;5.200;2024-03-23T06:16:36;100910.47;;;5.68;100.00
26320;BME280;14024;52.226;5.200;2024-03-23T06:19:04;100909.44;;;5.74;100.00
26320;BME280;14024;52.226;5.200;2024-03-23T06:21:32;100908.34;;;5.81;100.00
26320;BME280;14024;52.226;5.200;2024-03-23T06:23:57;100908.28;;;5.82;100.00
26320;BME280;14024;52.226;5.200;2024-03-23T06:26:23;100900.28;;;5.87;100.00
26320;BME280;14024;52.226;5.200;2024-03-23T06:28:48;100904.53;;;5.93;100.00
26320;BME280;14024;52.226;5.200;2024-03-23T06:31:14;100907.94;;;5.95;100.00
26320;BME280;14024;52.226;5.200;2024-03-23T06:33:39;100911.31;;;6.00;100.00
26320;BME280;14024;52.226;5.200;2024-03-23T06:36:10;100897.06;;;6.07;100.00
26320;BME280;14024;52.226;5.200;2024-03-23T06:38:37;100897.84;;;6.09;100.00
26320;BME280;14024;52.226;5.200;2024-03-23T06:41:03;100905.56;;;6.15;100.00
26320;BME280;14024;52.226;5.200;2024-03-23T06:43:30;100895.75;;;6.20;100.00
26320;BME280;14024;52.226;5.200;2024-03-23T06:46:01;100906.78;;;6.31;100.00
26320;BME280;14024;52.226;5.200;2024-03-23T06:48:27;100910.06;;;6.39;100.00
26320;BME280;14024;52.226;5.200;2024-03-23T06:50:56;100906.50;;;6.40;100.00
26320;BME280;14024;52.226;5.200;2024-03-23T06:53:22;100906.25;;;6.48;100.00
26320;BME280;14024;52.226;5.200;2024-03-23T06:55:52;100909.75;;;6.48;100.00
26320;BME280;14024;52.226;5.200;2024-03-23T06:58:21;100900.63;;;6.58;100.00
26320;BME280;14024;52.226;5.200;2024-03-23T07:00:47;100898.75;;;6.62;100.00
26320;BME280;14024;52.226;5.200;2024-03-23T07:03:13;100904.09;;;6.60;100.00
26320;BME280;14024;52.226;5.200;2024-03-23T07:05:38;100902.25;;;6.62;100.00
26320;BME280;14024;52.226;5.200;2024-03-23T07:08:04;100915.09;;;6.71;100.00
26320;BME280;14024;52.226;5.200;2024-03-23T07:10:30;100904.25;;;6.81;100.00
26320;BME280;14024;52.226;5.200;2024-03-23T07:12:55;100900.81;;;6.79;100.00
26320;BME280;14024;52.226;5.200;2024-03-23T07:15:20;100901.53;;;6.84;100.00
26320;BME280;14024;52.226;5.200;2024-03-23T07:17:49;100902.88;;;6.95;100.00
26320;BME280;14024;52.226;5.200;2024-03-23T07:20:14;100900.13;;;6.98;100.00
26320;BME280;14024;52.226;5.200;2024-03-23T07:22:39;100901.31;;;7.14;100.00
26320;BME280;14024;52.226;5.200;2024-03-23T07:25:05;100902.50;;;7.06;100.00
26320;BME280;14024;52.226;5.200;2024-03-23T07:27:31;100895.38;;;7.08;100.00
26320;BME280;14024;52.226;5.200;2024-03-23T07:29:56;100899.63;;;7.12;100.00
26320;BME280;14024;52.226;5.200;2024-03-23T07:32:22;100901.94;;;7.21;100.00
26320;BME280;14024;52.226;5.200;2024-03-23T07:34:47;100909.44;;;7.33;100.00
26320;BME280;14024;52.226;5.200;2024-03-23T07:37:13;100914.00;;;7.28;100.00
26320;BME280;14024;52.226;5.200;2024-03-23T07:39:42;100908.94;;;7.22;100.00
26320;BME280;14024;52.226;5.200;2024-03-23T07:42:07;100914.09;;;7.25;100.00
26320;BME280;14024;52.226;5.200;2024-03-23T07:44:32;100907.44;;;7.15;100.00
26320;BME280;14024;52.226;5.200;2024-03-23T07:47:01;100902.19;;;7.15;100.00
26320;BME280;14024;52.226;5.200;2024-03-23T07:49:27;100908.03;;;7.23;100.00
26320;BME280;14024;52.226;5.200;2024-03-23T07:51:52;100910.34;;;7.32;99.47
26320;BME280;14024;52.226;5.200;2024-03-23T07:54:17;100899.16;;;7.49;99.44
26320;BME280;14024;52.226;5.200;2024-03-23T07:56:42;100894.31;;;7.38;99.50
26320;BME280;14024;52.226;5.200;2024-03-23T07:59:08;100898.53;;;7.42;99.57
26320;BME280;14024;52.226;5.200;2024-03-23T08:01:33;100893.72;;;7.53;100.00
26320;BME280;14024;52.226;5.200;2024-03-23T08:03:59;100895.44;;;7.54;98.56
26320;BME280;14024;52.226;5.200;2024-03-23T08:06:24;100903.41;;;7.53;99.26
26320;BME280;14024;52.226;5.200;2024-03-23T08:08:52;100898.94;;;7.55;98.53
26320;BME280;14024;52.226;5.200;2024-03-23T08:11:25;100896.81;;;7.65;98.07
26320;BME280;14024;52.226;5.200;2024-03-23T08:13:51;100895.09;;;7.63;97.37
26320;BME280;14024;52.226;5.200;2024-03-23T08:16:16;100892.59;;;7.60;96.43
26320;BME280;14024;52.226;5.200;2024-03-23T08:18:41;100892.78;;;7.78;97.08
26320;BME280;14024;52.226;5.200;2024-03-23T08:21:07;100901.84;;;7.71;95.80
26320;BME280;14024;52.226;5.200;2024-03-23T08:23:36;100897.09;;;7.57;95.13
26320;BME280;14024;52.226;5.200;2024-03-23T08:26:07;100897.50;;;7.70;95.98
26320;BME280;14024;52.226;5.200;2024-03-23T08:28:33;100894.53;;;7.79;95.40
26320;BME280;14024;52.226;5.200;2024-03-23T08:31:04;100892.88;;;7.75;93.10
26320;BME280;14024;52.226;5.200;2024-03-23T08:33:33;100890.25;;;7.75;94.17
26320;BME280;14024;52.226;5.200;2024-03-23T08:36:01;100900.97;;;7.93;93.30
26320;BME280;14024;52.226;5.200;2024-03-23T08:38:28;100905.28;;;7.96;92.99
26320;BME280;14024;52.226;5.200;2024-03-23T08:41:00;100903.91;;;7.62;91.28
26320;BME280;14024;52.226;5.200;2024-03-23T08:43:29;100908.28;;;7.63;91.45
26320;BME280;14024;52.226;5.200;2024-03-23T08:46:18;100910.44;;;7.76;90.34
26320;BME280;14024;52.226;5.200;2024-03-23T08:48:46;100894.91;;;7.91;91.48
26320;BME280;14024;52.226;5.200;2024-03-23T08:51:15;100892.94;;;8.18;90.34
26320;BME280;14024;52.226;5.200;2024-03-23T08:53:42;100896.88;;;8.08;89.10
26320;BME280;14024;52.226;5.200;2024-03-23T08:56:08;100888.25;;;8.25;89.00
26320;BME280;14024;52.226;5.200;2024-03-23T08:58:34;100904.09;;;8.25;88.97
26320;BME280;14024;52.226;5.200;2024-03-23T09:03:29;100905.47;;;8.13;90.22
26320;BME280;14024;52.226;5.200;2024-03-23T09:05:55;100895.75;;;7.92;91.13
26320;BME280;14024;52.226;5.200;2024-03-23T09:08:21;100896.72;;;7.89;89.73
26320;BME280;14024;52.226;5.200;2024-03-23T09:10:47;100896.69;;;7.91;87.70
26320;BME280;14024;52.226;5.200;2024-03-23T09:13:12;100896.63;;;7.92;88.09
26320;BME280;14024;52.226;5.200;2024-03-23T09:15:49;100888.41;;;8.00;88.90
26320;BME280;14024;52.226;5.200;2024-03-23T09:18:14;100885.72;;;8.23;89.75
26320;BME280;14024;52.226;5.200;2024-03-23T09:20:40;100884.63;;;8.50;89.04
26320;BME280;14024;52.226;5.200;2024-03-23T09:23:05;100874.66;;;8.35;88.55
26320;BME280;14024;52.226;5.200;2024-03-23T09:25:30;100894.78;;;7.94;88.00
26320;BME280;14024;52.226;5.200;2024-03-23T09:27:56;100912.31;;;7.74;89.22
26320;BME280;14024;52.226;5.200;2024-03-23T09:30:21;100890.84;;;7.83;90.23
26320;BME280;14024;52.226;5.200;2024-03-23T09:32:46;100891.19;;;7.74;89.80
26320;BME280;14024;52.226;5.200;2024-03-23T09:35:12;100890.34;;;7.95;91.15
26320;BME280;14024;52.226;5.200;2024-03-23T09:37:40;100884.66;;;8.05;89.06
26320;BME280;14024;52.226;5.200;2024-03-23T09:40:10;100878.41;;;8.30;88.59
26320;BME280;14024;52.226;5.200;2024-03-23T09:42:37;100877.38;;;8.34;89.36
26320;BME280;14024;52.226;5.200;2024-03-23T09:45:05;100888.69;;;8.37;89.10
26320;BME280;14024;52.226;5.200;2024-03-23T09:47:32;100893.16;;;7.45;93.12
26320;BME280;14024;52.226;5.200;2024-03-23T09:49:57;100889.00;;;7.15;93.86
26320;BME280;14024;52.226;5.200;2024-03-23T09:52:23;100912.94;;;7.09;96.37
26320;BME280;14024;52.226;5.200;2024-03-23T09:54:48;100889.56;;;7.23;96.66
26320;BME280;14024;52.226;5.200;2024-03-23T09:57:14;100878.00;;;7.50;97.70
26320;BME280;14024;52.226;5.200;2024-03-23T09:59:39;100887.19;;;7.40;93.31
26320;BME280;14024;52.226;5.200;2024-03-23T10:02:04;100896.69;;;7.68;93.97
26320;BME280;14024;52.226;5.200;2024-03-23T10:04:41;100882.47;;;7.72;92.88
26320;BME280;14024;52.226;5.200;2024-03-23T10:07:14;100896.69;;;7.68;93.83
26320;BME280;14024;52.226;5.200;2024-03-23T10:09:39;100900.84;;;7.51;93.49
26320;BME280;14024;52.226;5.200;2024-03-23T10:12:12;100886.88;;;7.71;94.46
26320;BME280;14024;52.226;5.200;2024-03-23T10:14:41;100894.97;;;7.67;93.60
26320;BME280;14024;52.226;5.200;2024-03-23T10:17:21;100888.72;;;7.69;93.85
26320;BME280;14024;52.226;5.200;2024-03-23T10:19:51;100885.91;;;7.74;93.42
26320;BME280;14024;52.226;5.200;2024-03-23T10:22:23;100885.84;;;7.75;91.82
26320;BME280;14024;52.226;5.200;2024-03-23T10:24:51;100896.56;;;7.71;90.64
26320;BME280;14024;52.226;5.200;2024-03-23T10:27:21;100881.09;;;7.61;89.79
26320;BME280;14024;52.226;5.200;2024-03-23T10:29:48;100886.00;;;7.71;90.01
26320;BME280;14024;52.226;5.200;2024-03-23T10:32:15;100878.06;;;7.94;87.51
26320;BME280;14024;52.226;5.200;2024-03-23T10:34:41;100881.53;;;7.96;86.99
26320;BME280;14024;52.226;5.200;2024-03-23T10:37:07;100879.66;;;8.20;87.31
26320;BME280;14024;52.226;5.200;2024-03-23T10:39:37;100891.22;;;8.17;87.51
26320;BME280;14024;52.226;5.200;2024-03-23T10:42:07;100879.72;;;8.41;87.37
26320;BME280;14024;52.226;5.200;2024-03-23T10:44:33;100865.44;;;8.45;84.32
26320;BME280;14024;52.226;5.200;2024-03-23T10:46:59;100876.50;;;8.33;84.77
26320;BME280;14024;52.226;5.200;2024-03-23T10:49:32;100881.03;;;8.51;85.30
26320;BME280;14024;52.226;5.200;2024-03-23T10:52:04;100872.50;;;8.45;82.63
26320;BME280;14024;52.226;5.200;2024-03-23T10:54:31;100863.63;;;8.68;83.94
26320;BME280;14024;52.226;5.200;2024-03-23T10:57:04;100865.06;;;8.75;83.83
26320;BME280;14024;52.226;5.200;2024-03-23T10:59:31;100857.59;;;8.44;83.11
26320;BME280;14024;52.226;5.200;2024-03-23T11:01:58;100862.41;;;8.75;83.46
26320;BME280;14024;52.226;5.200;2024-03-23T11:04:32;100894.84;;;8.78;82.59
26320;BME280;14024;52.226;5.200;2024-03-23T11:06:57;100881.63;;;8.58;84.10
26320;BME280;14024;52.226;5.200;2024-03-23T11:09:40;100862.03;;;8.64;85.46
26320;BME280;14024;52.226;5.200;2024-03-23T11:14:48;100865.63;;;8.19;86.39
26320;BME280;14024;52.226;5.200;2024-03-23T11:17:18;100880.09;;;8.52;85.25
26320;BME280;14024;52.226;5.200;2024-03-23T11:19:44;100864.78;;;8.61;82.93
26320;BME280;14024;52.226;5.200;2024-03-23T11:22:41;100865.88;;;8.77;83.11
26320;BME280;14024;52.226;5.200;2024-03-23T11:27:43;100867.03;;;8.70;83.88
26320;BME280;14024;52.226;5.200;2024-03-23T11:32:37;100853.97;;;9.07;82.77
26320;BME280;14024;52.226;5.200;2024-03-23T11:35:03;100858.94;;;9.33;80.71
26320;BME280;14024;52.226;5.200;2024-03-23T11:37:28;100857.31;;;9.11;79.08
26320;BME280;14024;52.226;5.200;2024-03-23T11:39:53;100868.50;;;8.77;79.41
26320;BME280;14024;52.226;5.200;2024-03-23T11:42:18;100846.09;;;9.45;81.23
26320;BME280;14024;52.226;5.200;2024-03-23T11:44:45;100860.88;;;9.10;81.07
26320;BME280;14024;52.226;5.200;2024-03-23T11:47:11;100868.09;;;9.06;79.91
26320;BME280;14024;52.226;5.200;2024-03-23T11:49:36;100846.97;;;8.86;77.49
26320;BME280;14024;52.226;5.200;2024-03-23T11:52:06;100879.38;;;9.30;78.11
26320;BME280;14024;52.226;5.200;2024-03-23T11:54:32;100848.28;;;8.96;78.08
26320;BME280;14024;52.226;5.200;2024-03-23T11:56:59;100858.19;;;9.11;79.15
26320;BME280;14024;52.226;5.200;2024-03-23T11:59:39;100853.44;;;8.99;79.65
26320;BME280;14024;52.226;5.200;2024-03-23T12:02:11;100865.69;;;8.39;79.46
26320;BME280;14024;52.226;5.200;2024-03-23T12:04:40;100854.22;;;8.19;79.68
26320;BME280;14024;52.226;5.200;2024-03-23T12:07:15;100856.91;;;8.39;79.92
26320;BME280;14024;52.226;5.200;2024-03-23T12:09:41;100855.19;;;8.38;76.71
26320;BME280;14024;52.226;5.200;2024-03-23T12:12:18;100837.88;;;8.73;78.43
26320;BME280;14024;52.226;5.200;2024-03-23T12:14:45;100840.88;;;9.04;76.87
26320;BME280;14024;52.226;5.200;2024-03-23T12:17:14;100838.50;;;8.98;77.99
26320;BME280;14024;52.226;5.200;2024-03-23T12:19:41;100850.53;;;8.44;79.25
26320;BME280;14024;52.226;5.200;2024-03-23T12:22:07;100843.50;;;8.43;80.53
26320;BME280;14024;52.226;5.200;2024-03-23T12:24:34;100838.38;;;8.61;80.76
26320;BME280;14024;52.226;5.200;2024-03-23T12:27:03;100850.59;;;8.83;79.41
26320;BME280;14024;52.226;5.200;2024-03-23T12:29:30;100835.50;;;8.87;78.41
26320;BME280;14024;52.226;5.200;2024-03-23T12:32:00;100821.72;;;8.79;78.13
26320;BME280;14024;52.226;5.200;2024-03-23T12:34:26;100827.59;;;9.24;77.23
26320;BME280;14024;52.226;5.200;2024-03-23T12:36:51;100832.13;;;9.60;77.57
26320;BME280;14024;52.226;5.200;2024-03-23T12:39:16;100815.91;;;9.49;77.62
26320;BME280;14024;52.226;5.200;2024-03-23T12:41:42;100811.75;;;9.80;77.40
26320;BME280;14024;52.226;5.200;2024-03-23T12:44:08;100810.19;;;10.12;75.84
26320;BME280;14024;52.226;5.200;2024-03-23T12:46:36;100821.25;;;9.66;72.39
26320;BME280;14024;52.226;5.200;2024-03-23T12:49:02;100817.19;;;9.59;70.72
26320;BME280;14024;52.226;5.200;2024-03-23T12:51:27;100832.66;;;9.49;69.79
26320;BME280;14024;52.226;5.200;2024-03-23T12:53:52;100832.44;;;9.54;71.64
26320;BME280;14024;52.226;5.200;2024-03-23T12:56:21;100821.84;;;9.35;71.48
26320;BME280;14024;52.226;5.200;2024-03-23T12:58:46;100831.06;;;9.26;72.05
26320;BME280;14024;52.226;5.200;2024-03-23T13:01:16;100814.66;;;9.37;72.15
26320;BME280;14024;52.226;5.200;2024-03-23T13:03:42;100814.91;;;9.14;71.81
26320;BME280;14024;52.226;5.200;2024-03-23T13:06:09;100837.69;;;8.96;70.78
26320;BME280;14024;52.226;5.200;2024-03-23T13:08:35;100807.09;;;9.29;72.49
26320;BME280;14024;52.226;5.200;2024-03-23T13:11:00;100813.38;;;9.46;70.14
26320;BME280;14024;52.226;5.200;2024-03-23T13:13:25;100814.25;;;9.65;72.19
26320;BME280;14024;52.226;5.200;2024-03-23T13:15:51;100820.25;;;9.12;72.34
26320;BME280;14024;52.226;5.200;2024-03-23T13:18:16;100842.38;;;9.10;72.52
26320;BME280;14024;52.226;5.200;2024-03-23T13:20:43;100827.94;;;8.98;73.42
26320;BME280;14024;52.226;5.200;2024-03-23T13:23:08;100807.13;;;8.70;74.75
26320;BME280;14024;52.226;5.200;2024-03-23T13:25:34;100798.59;;;8.84;77.10
26320;BME280;14024;52.226;5.200;2024-03-23T13:27:59;100798.50;;;8.87;77.96
26320;BME280;14024;52.226;5.200;2024-03-23T13:30:26;100803.25;;;8.59;80.32
26320;BME280;14024;52.226;5.200;2024-03-23T13:32:51;100809.81;;;8.28;80.98
26320;BME280;14024;52.226;5.200;2024-03-23T13:35:16;100805.63;;;8.23;82.71
26320;BME280;14024;52.226;5.200;2024-03-23T13:37:42;100802.56;;;8.33;82.46
26320;BME280;14024;52.226;5.200;2024-03-23T13:40:08;100810.81;;;8.04;77.78
26320;BME280;14024;52.226;5.200;2024-03-23T13:42:35;100802.44;;;7.93;76.13
26320;BME280;14024;52.226;5.200;2024-03-23T13:45:00;100808.00;;;7.87;76.06
26320;BME280;14024;52.226;5.200;2024-03-23T13:47:26;100797.09;;;8.16;76.68
26320;BME280;14024;52.226;5.200;2024-03-23T13:49:51;100790.41;;;8.70;75.95
26320;BME280;14024;52.226;5.200;2024-03-23T13:52:17;100788.84;;;8.86;74.61
26320;BME280;14024;52.226;5.200;2024-03-23T13:54:50;100778.81;;;9.31;74.72
26320;BME280;14024;52.226;5.200;2024-03-23T13:57:16;100793.72;;;9.51;74.24